Time;durP1;ratioP1;P1;durP2;ratioP2;P2;SDS_P1;SDS_P2;PMS_P1;PMS_P2;Temp;Humidity;BMP_temperature;BMP_pressure;BME280_temperature;BME280_humidity;BME280_pressure;Samples;Min_cycle;Max_cycle;Signal;HPM_P1;HPM_P2
2022/01/31 00:00:35;;;;;;;3.57;0.90;;;;;;;1.37;100.00;99290.59;15276925;19;20148;-47
2022/01/31 00:05:40;;;;;;;6.67;1.10;;;;;;;1.17;100.00;99258.25;15283397;19;20148;-49
2022/01/31 00:10:44;;;;;;;5.10;1.50;;;;;;;1.15;100.00;99278.47;15282279;19;20566;-49
2022/01/31 00:15:54;;;;;;;5.20;1.10;;;;;;;1.23;100.00;99292.97;15257754;19;20145;-49
2022/01/31 00:20:59;;;;;;;4.50;1.20;;;;;;;1.23;100.00;99297.38;15268584;19;20865;-50
2022/01/31 00:26:03;;;;;;;3.30;1.30;;;;;;;1.29;100.00;99270.84;15279953;19;20152;-49
2022/01/31 00:31:07;;;;;;;6.23;2.67;;;;;;;1.36;100.00;99272.28;15284598;19;20161;-50
2022/01/31 00:36:12;;;;;;;5.40;2.37;;;;;;;1.38;100.00;99286.22;15271171;19;20141;-49
2022/01/31 00:41:17;;;;;;;3.93;2.23;;;;;;;1.47;100.00;99284.94;15257154;19;20203;-49
2022/01/31 00:46:28;;;;;;;5.93;2.50;;;;;;;1.49;100.00;99278.69;15277146;19;20173;-49
2022/01/31 00:56:30;;;;;;;8.33;3.03;;;;;;;1.53;100.00;99296.06;15342858;19;20523;-49
2022/01/31 01:01:34;;;;;;;5.63;2.47;;;;;;;1.58;100.00;99309.84;15322013;19;20155;-50
2022/01/31 01:11:36;;;;;;;5.20;1.53;;;;;;;1.41;100.00;99362.31;15341779;19;20485;-50
2022/01/31 01:21:35;;;;;;;5.10;1.83;;;;;;;1.21;100.00;99352.59;15183134;19;2875442;-49
2022/01/31 01:26:39;;;;;;;4.53;1.30;;;;;;;1.13;100.00;99359.97;15322942;19;20249;-50
2022/01/31 01:31:45;;;;;;;2.63;1.20;;;;;;;1.10;100.00;99349.56;15345110;19;20152;-50
2022/01/31 01:36:53;;;;;;;2.77;1.10;;;;;;;1.13;100.00;99351.22;15345623;19;20172;-50
2022/01/31 01:41:58;;;;;;;4.43;1.17;;;;;;;1.20;100.00;99350.06;15346213;19;20156;-49
2022/01/31 01:51:59;;;;;;;4.70;1.47;;;;;;;1.25;100.00;99345.47;15330800;19;20513;-49
2022/01/31 02:06:57;;;;;;;4.60;1.47;;;;;;;1.32;100.00;99329.38;15182555;19;2871886;-49
2022/01/31 02:16:58;;;;;;;7.20;2.37;;;;;;;1.45;100.00;99319.19;15343183;19;20785;-50
2022/01/31 02:22:09;;;;;;;5.20;2.50;;;;;;;1.48;100.00;99323.44;15347268;19;20268;-49
2022/01/31 02:27:38;;;;;;;8.73;2.47;;;;;;;1.60;100.00;99318.53;15346559;19;20155;-50
2022/01/31 02:32:44;;;;;;;6.90;2.77;;;;;;;1.54;100.00;99303.03;15318131;19;20155;-49
2022/01/31 02:42:46;;;;;;;10.20;3.40;;;;;;;1.67;100.00;99298.94;15343671;19;20822;-49
2022/01/31 02:47:54;;;;;;;13.67;3.10;;;;;;;1.59;100.00;99303.66;15348379;19;20144;-49
2022/01/31 02:53:11;;;;;;;17.93;3.57;;;;;;;1.69;100.00;99289.19;15324887;19;20156;-50
2022/01/31 02:58:18;;;;;;;13.43;2.80;;;;;;;1.62;100.00;99297.41;15330127;19;20181;-49
2022/01/31 03:03:25;;;;;;;14.87;3.00;;;;;;;1.58;100.00;99303.72;15347118;19;20147;-49
2022/01/31 03:08:30;;;;;;;15.53;3.20;;;;;;;1.48;100.00;99298.03;15344631;19;20156;-49
2022/01/31 03:13:42;;;;;;;16.80;3.20;;;;;;;1.37;100.00;99308.16;15336593;19;20550;-50
2022/01/31 03:23:46;;;;;;;14.27;2.90;;;;;;;1.35;100.00;99321.34;15338578;19;21312;-49
2022/01/31 03:33:49;;;;;;;13.93;2.90;;;;;;;1.35;100.00;99334.50;15343478;19;20805;-49
2022/01/31 03:38:53;;;;;;;17.20;3.67;;;;;;;1.44;100.00;99322.75;15320233;19;20215;-49
2022/01/31 03:43:58;;;;;;;17.20;3.97;;;;;;;1.45;100.00;99329.69;15332654;19;20610;-49
2022/01/31 03:49:04;;;;;;;23.67;4.50;;;;;;;1.40;100.00;99331.69;15345862;19;20144;-48
2022/01/31 03:54:14;;;;;;;17.43;3.97;;;;;;;1.43;100.00;99331.56;15346188;19;20599;-49
2022/01/31 03:59:19;;;;;;;15.40;4.37;;;;;;;1.33;100.00;99324.97;15331255;19;20579;-48
2022/01/31 04:04:25;;;;;;;23.87;4.83;;;;;;;1.38;100.00;99323.84;15319880;19;20178;-48
2022/01/31 04:09:31;;;;;;;19.40;5.20;;;;;;;1.41;100.00;99325.50;15345783;19;20147;-48
2022/01/31 04:14:35;;;;;;;16.50;4.43;;;;;;;1.37;100.00;99322.16;15345194;19;20145;-49
2022/01/31 04:19:40;;;;;;;19.57;4.97;;;;;;;1.40;100.00;99310.66;15345965;19;20159;-48
2022/01/31 04:24:48;;;;;;;21.13;5.20;;;;;;;1.38;100.00;99313.34;15315117;19;20208;-49
2022/01/31 04:29:52;;;;;;;27.53;5.40;;;;;;;1.31;100.00;99319.78;15332841;19;20192;-48
2022/01/31 04:39:52;;;;;;;20.33;6.40;;;;;;;1.30;100.00;99314.59;15189418;19;2997376;-48
2022/01/31 04:45:00;;;;;;;21.10;5.33;;;;;;;1.25;100.00;99306.91;15328222;19;20152;-49
2022/01/31 04:50:06;;;;;;;20.93;5.73;;;;;;;1.26;100.00;99327.00;15323271;19;20144;-48
2022/01/31 04:55:12;;;;;;;30.27;7.10;;;;;;;1.31;100.00;99321.56;15346463;19;20144;-49
2022/01/31 05:00:16;;;;;;;28.30;6.67;;;;;;;1.27;100.00;99323.47;15346326;19;20519;-47
2022/01/31 05:10:16;;;;;;;28.40;7.73;;;;;;;1.26;100.00;99318.28;15165353;19;2875083;-49
2022/01/31 05:15:21;;;;;;;22.30;6.47;;;;;;;1.33;100.00;99309.19;15336419;19;20144;-48
2022/01/31 05:20:25;;;;;;;25.00;6.50;;;;;;;1.31;100.00;99300.53;15348446;19;20148;-48
2022/01/31 05:25:30;;;;;;;28.70;6.37;;;;;;;1.29;100.00;99307.63;15348354;19;20135;-49
2022/01/31 05:35:32;;;;;;;29.30;8.03;;;;;;;1.24;100.00;99286.81;15325544;19;20840;-49
2022/01/31 05:40:39;;;;;;;22.70;7.97;;;;;;;1.26;100.00;99294.63;15349504;19;20146;-48
2022/01/31 05:45:43;;;;;;;23.87;7.60;;;;;;;1.25;100.00;99300.78;15348698;19;20818;-50
2022/01/31 05:55:47;;;;;;;24.87;7.80;;;;;;;1.19;100.00;99291.41;15311757;19;21600;-47
2022/01/31 06:00:52;;;;;;;27.80;7.87;;;;;;;1.08;100.00;99284.00;15341739;19;21032;-48
2022/01/31 06:10:51;;;;;;;23.43;8.00;;;;;;;1.02;100.00;99278.13;15192055;19;2906405;-48
2022/01/31 06:15:56;;;;;;;18.70;6.33;;;;;;;1.01;100.00;99287.78;15320401;19;20177;-49
2022/01/31 06:21:00;;;;;;;21.97;7.10;;;;;;;0.95;100.00;99288.06;15327979;19;20151;-48
2022/01/31 06:31:03;;;;;;;18.50;6.63;;;;;;;1.07;100.00;99284.91;15342813;19;20807;-48
2022/01/31 06:36:08;;;;;;;21.77;7.87;;;;;;;1.18;100.00;99294.09;15339144;19;20175;-48
2022/01/31 06:41:13;;;;;;;19.90;6.10;;;;;;;1.12;100.00;99283.84;15319246;19;20242;-49
2022/01/31 06:46:17;;;;;;;18.23;6.30;;;;;;;1.26;100.00;99281.47;15343736;19;20492;-48
2022/01/31 06:51:22;;;;;;;17.47;5.17;;;;;;;1.23;100.00;99273.72;15347110;19;20145;-48
2022/01/31 06:56:35;;;;;;;20.40;6.13;;;;;;;1.33;100.00;99261.88;15346010;19;20137;-49
2022/01/31 07:01:40;;;;;;;21.50;5.93;;;;;;;1.40;100.00;99253.69;15318112;19;20159;-48
2022/01/31 07:06:44;;;;;;;15.60;5.90;;;;;;;1.34;100.00;99274.97;15329759;19;20261;-47
2022/01/31 07:16:46;;;;;;;19.53;6.47;;;;;;;1.38;100.00;99254.66;15192981;19;2884140;-49
2022/01/31 07:21:51;;;;;;;17.63;6.67;;;;;;;1.41;100.00;99286.09;15336456;19;20153;-48
2022/01/31 07:26:55;;;;;;;21.53;6.90;;;;;;;1.48;100.00;99271.75;15322583;19;20155;-47
2022/01/31 07:32:00;;;;;;;17.43;6.30;;;;;;;1.52;100.00;99268.06;15342270;19;20549;-48
2022/01/31 07:37:06;;;;;;;18.57;6.20;;;;;;;1.60;100.00;99249.31;15345122;19;20165;-48
2022/01/31 07:42:10;;;;;;;18.10;6.00;;;;;;;1.51;100.00;99250.59;15347965;19;20159;-48
2022/01/31 07:47:23;;;;;;;23.13;6.47;;;;;;;1.64;100.00;99246.47;15312198;19;20224;-48
2022/01/31 07:52:27;;;;;;;18.53;5.53;;;;;;;1.67;100.00;99259.50;15332787;19;20148;-48
2022/01/31 07:57:32;;;;;;;16.93;5.63;;;;;;;1.84;100.00;99252.59;15345740;19;20550;-49
2022/01/31 08:02:43;;;;;;;16.17;5.50;;;;;;;1.85;100.00;99256.94;15346184;19;20149;-47
2022/01/31 08:07:48;;;;;;;16.93;4.67;;;;;;;1.85;100.00;99238.53;15327809;19;20179;-48
2022/01/31 08:17:50;;;;;;;18.33;5.37;;;;;;;1.86;100.00;99240.22;15338198;19;20992;-48
2022/01/31 08:22:54;;;;;;;15.20;4.90;;;;;;;1.92;100.00;99240.81;15348034;19;20628;-49
2022/01/31 08:28:03;;;;;;;18.90;6.30;;;;;;;2.12;100.00;99232.00;15343262;19;20161;-47
2022/01/31 08:33:14;;;;;;;12.87;5.47;;;;;;;2.06;100.00;99234.88;15312040;19;20133;-48
2022/01/31 08:38:19;;;;;;;18.63;5.57;;;;;;;2.25;100.00;99241.00;15332385;19;20618;-48
2022/01/31 08:43:24;;;;;;;21.83;7.37;;;;;;;2.27;100.00;99230.41;15340636;19;20695;-50
2022/01/31 08:48:30;;;;;;;19.50;6.37;;;;;;;2.33;100.00;99225.69;15337702;19;20618;-46
2022/01/31 08:53:35;;;;;;;20.10;7.30;;;;;;;2.23;100.00;99219.16;15316302;19;20633;-48
2022/01/31 09:03:55;;;;;;;18.10;6.33;;;;;;;2.37;100.00;99211.47;15191095;19;2909845;-50
2022/01/31 09:09:00;;;;;;;16.70;6.13;;;;;;;2.38;100.00;99213.16;15347934;19;20215;-50
2022/01/31 09:14:05;;;;;;;21.90;6.03;;;;;;;2.29;100.00;99218.88;15337222;19;20619;-46
2022/01/31 09:19:09;;;;;;;17.00;5.93;;;;;;;2.46;100.00;99216.28;15324357;19;20136;-48
2022/01/31 09:24:14;;;;;;;15.40;5.93;;;;;;;2.50;100.00;99206.44;15347107;19;20137;-47
2022/01/31 09:29:19;;;;;;;17.83;5.80;;;;;;;2.46;100.00;99186.47;15344981;19;20145;-50
2022/01/31 09:34:24;;;;;;;14.13;5.80;;;;;;;2.75;100.00;99192.91;15343531;19;20171;-46
2022/01/31 09:39:28;;;;;;;18.03;5.87;;;;;;;2.69;100.00;99183.53;15288421;19;20181;-49
2022/01/31 09:44:47;;;;;;;13.53;5.00;;;;;;;2.45;100.00;99177.72;15297517;19;20156;-50
2022/01/31 09:49:54;;;;;;;16.13;5.57;;;;;;;2.61;100.00;99155.88;15307782;19;20152;-47
2022/01/31 09:54:58;;;;;;;13.10;5.87;;;;;;;2.80;100.00;99170.66;15305438;19;20157;-49
2022/01/31 10:00:03;;;;;;;13.30;4.80;;;;;;;2.63;100.00;99161.94;15295563;19;20189;-47
2022/01/31 10:05:30;;;;;;;13.77;4.73;;;;;;;2.80;100.00;99164.53;15290974;19;20161;-50
2022/01/31 10:10:40;;;;;;;13.30;3.97;;;;;;;2.54;100.00;99145.66;15307274;19;20643;-49
2022/01/31 10:21:19;;;;;;;9.83;3.60;;;;;;;2.23;100.00;99118.31;15244639;19;20137;-47
2022/01/31 10:26:34;;;;;;;12.47;3.60;;;;;;;2.07;100.00;99144.50;15229646;19;20157;-48
2022/01/31 10:36:36;;;;;;;10.17;3.40;;;;;;;2.54;100.00;99137.75;15315773;19;21075;-48
2022/01/31 10:53:01;;;;;;;7.63;3.17;;;;;;;2.84;100.00;99127.44;15309133;19;20746;-49
2022/01/31 10:58:10;;;;;;;9.87;3.50;;;;;;;2.99;100.00;99124.94;15319891;19;20232;-48
2022/01/31 11:03:34;;;;;;;7.13;2.83;;;;;;;2.90;100.00;99115.72;15319291;19;20180;-49
2022/01/31 11:08:40;;;;;;;7.37;3.30;;;;;;;2.67;100.00;99108.16;15293678;19;20164;-48
2022/01/31 11:13:45;;;;;;;7.50;2.53;;;;;;;2.77;100.00;99101.50;15299036;19;20153;-49
2022/01/31 11:19:00;;;;;;;10.10;2.30;;;;;;;2.68;100.00;99109.88;15317393;19;20141;-47
2022/01/31 11:29:04;;;;;;;6.60;3.20;;;;;;;2.74;100.00;99104.28;15305019;19;20502;-48
2022/01/31 11:34:11;;;;;;;9.00;3.63;;;;;;;3.07;100.00;99091.97;15296212;19;20155;-51
2022/01/31 11:39:17;;;;;;;8.30;2.97;;;;;;;3.13;100.00;99096.94;15319966;19;20639;-53
2022/01/31 11:44:47;;;;;;;6.17;2.73;;;;;;;3.17;100.00;99113.41;15318708;19;20161;-48
2022/01/31 11:49:55;;;;;;;7.03;3.33;;;;;;;3.13;100.00;99112.75;15320325;19;20261;-48
2022/01/31 11:55:02;;;;;;;10.10;3.50;;;;;;;3.00;100.00;99105.56;15295340;19;20141;-48
2022/01/31 12:00:10;;;;;;;8.10;2.70;;;;;;;2.76;100.00;99097.16;15313114;19;20598;-46
2022/01/31 12:05:29;;;;;;;6.03;2.30;;;;;;;2.82;100.00;99104.75;15314020;19;20245;-51
2022/01/31 12:10:43;;;;;;;5.97;3.00;;;;;;;2.81;100.00;99117.06;15318459;19;21070;-49
2022/01/31 12:16:13;;;;;;;9.20;2.23;;;;;;;2.96;100.00;99096.13;15295405;19;20159;-49
2022/01/31 12:26:58;;;;;;;5.93;2.77;;;;;;;2.85;100.00;99109.84;15309486;19;20173;-48
2022/01/31 12:32:22;;;;;;;8.03;2.60;;;;;;;2.89;100.00;99098.22;15313511;19;20146;-50
2022/01/31 12:37:41;;;;;;;5.53;2.60;;;;;;;3.14;100.00;99095.97;15280422;19;20145;-49
2022/01/31 12:48:26;;;;;;;5.60;2.80;;;;;;;3.30;100.00;99084.59;15253392;19;20753;-50
2022/01/31 12:53:38;;;;;;;7.10;3.13;;;;;;;3.42;100.00;99083.94;15248341;19;20530;-49
2022/01/31 12:58:50;;;;;;;5.13;2.97;;;;;;;3.47;100.00;99084.56;15245198;19;20931;-48
2022/01/31 13:04:10;;;;;;;3.97;2.80;;;;;;;3.59;100.00;99094.44;15224154;19;20179;-49
2022/01/31 13:09:19;;;;;;;5.30;3.47;;;;;;;3.78;100.00;99094.22;15244196;19;20222;-50
2022/01/31 13:14:25;;;;;;;9.37;4.17;;;;;;;3.86;100.00;99100.81;15250675;19;20166;-52
2022/01/31 13:19:50;;;;;;;7.07;3.47;;;;;;;3.93;100.00;99115.34;15252775;19;20270;-46
2022/01/31 13:25:11;;;;;;;9.73;3.63;;;;;;;3.80;100.00;99114.31;15247711;19;20163;-48
2022/01/31 13:30:36;;;;;;;7.53;3.73;;;;;;;3.85;100.00;99120.22;15237619;19;20280;-49
2022/01/31 13:35:42;;;;;;;8.83;4.80;;;;;;;3.83;100.00;99119.44;15278955;19;20155;-50
2022/01/31 13:40:49;;;;;;;10.90;4.93;;;;;;;3.62;100.00;99120.63;15280928;19;20150;-49
2022/01/31 13:46:06;;;;;;;11.33;4.90;;;;;;;3.49;100.00;99130.16;15261175;19;20878;-47
2022/01/31 13:51:13;;;;;;;11.83;5.13;;;;;;;3.28;100.00;99139.19;15264821;19;20147;-50
2022/01/31 13:56:17;;;;;;;9.40;4.53;;;;;;;3.10;100.00;99144.53;15279692;19;20227;-51
2022/01/31 14:01:24;;;;;;;11.47;4.47;;;;;;;2.94;100.00;99142.75;15275661;19;20161;-50
2022/01/31 14:06:34;;;;;;;15.97;5.30;;;;;;;2.74;100.00;99142.03;15269982;19;20237;-48
2022/01/31 14:11:46;;;;;;;9.43;5.00;;;;;;;2.70;100.00;99134.34;15254400;19;21222;-48
2022/01/31 14:21:51;;;;;;;8.93;4.83;;;;;;;2.50;100.00;99138.84;15334065;19;20959;-51
2022/01/31 14:27:02;;;;;;;13.20;6.77;;;;;;;2.32;100.00;99139.75;15341996;19;20606;-48
2022/01/31 14:32:12;;;;;;;11.17;7.10;;;;;;;2.11;100.00;99149.56;15318915;19;20148;-51
2022/01/31 14:37:21;;;;;;;12.43;6.00;;;;;;;2.03;100.00;99146.47;15329236;19;20153;-50
2022/01/31 14:57:40;;;;;;;17.33;6.53;;;;;;;1.50;100.00;99141.09;15310565;19;20857;-49
2022/01/31 15:02:45;;;;;;;15.87;6.27;;;;;;;1.33;100.00;99147.13;15340268;19;20164;-51
2022/01/31 15:07:51;;;;;;;11.23;6.13;;;;;;;1.21;100.00;99138.97;15341411;19;20141;-49
2022/01/31 15:13:00;;;;;;;16.10;7.30;;;;;;;1.18;100.00;99147.81;15335382;19;20149;-50
2022/01/31 15:18:05;;;;;;;16.20;8.77;;;;;;;1.19;100.00;99143.44;15314123;19;20622;-48
2022/01/31 15:23:11;;;;;;;20.33;9.77;;;;;;;1.22;100.00;99143.25;15334074;19;20164;-48
2022/01/31 15:28:16;;;;;;;24.20;9.43;;;;;;;1.17;100.00;99153.16;15340787;19;20149;-48
2022/01/31 15:33:20;;;;;;;16.23;9.43;;;;;;;1.20;100.00;99160.91;15339024;19;20848;-49
2022/01/31 15:38:25;;;;;;;16.93;8.63;;;;;;;1.26;100.00;99171.13;15316884;19;20175;-50
2022/01/31 15:43:31;;;;;;;17.27;7.97;;;;;;;1.35;100.00;99163.66;15321074;19;20665;-49
2022/01/31 15:53:51;;;;;;;13.97;6.83;;;;;;;1.62;100.00;99153.66;15187396;19;2930796;-49
2022/01/31 15:58:56;;;;;;;11.70;7.67;;;;;;;1.66;100.00;99150.00;15326749;19;20152;-50
2022/01/31 16:04:01;;;;;;;15.50;7.63;;;;;;;1.73;100.00;99161.91;15317442;19;20152;-48
2022/01/31 16:09:05;;;;;;;22.00;11.33;;;;;;;1.88;100.00;99160.34;15343053;19;20133;-49
2022/01/31 16:14:11;;;;;;;24.17;11.63;;;;;;;1.88;100.00;99180.53;15344516;19;20148;-48
2022/01/31 16:19:16;;;;;;;16.03;8.50;;;;;;;1.98;100.00;99179.16;15341845;19;20227;-48
2022/01/31 16:29:17;;;;;;;16.07;7.87;;;;;;;1.91;100.00;99193.53;15326985;19;20448;-47
2022/01/31 16:34:22;;;;;;;17.10;8.47;;;;;;;1.87;100.00;99186.72;15339003;19;20148;-49
2022/01/31 16:44:22;;;;;;;17.30;8.53;;;;;;;1.86;100.00;99208.66;15174998;19;2873685;-48
2022/01/31 16:49:27;;;;;;;12.13;7.90;;;;;;;1.90;100.00;99203.22;15320926;19;20736;-50
2022/01/31 17:04:28;;;;;;;16.07;7.63;;;;;;;1.32;100.00;99197.13;15337748;19;20516;-48
2022/01/31 17:09:32;;;;;;;12.77;7.40;;;;;;;1.25;100.00;99195.69;15312038;19;20148;-51
2022/01/31 17:14:38;;;;;;;12.57;7.43;;;;;;;1.11;100.00;99203.31;15326031;19;20245;-49
2022/01/31 17:19:42;;;;;;;23.47;10.90;;;;;;;1.04;100.00;99203.59;15341159;19;20152;-48
2022/01/31 17:24:47;;;;;;;25.77;10.90;;;;;;;1.04;100.00;99193.09;15339397;19;20152;-51
2022/01/31 17:29:52;;;;;;;18.37;10.13;;;;;;;1.00;100.00;99202.00;15323693;19;20247;-48
2022/01/31 17:39:51;;;;;;;17.13;9.40;;;;;;;0.69;100.00;99199.84;15189165;19;2952648;-49
2022/01/31 17:45:01;;;;;;;19.70;10.30;;;;;;;0.56;100.00;99210.94;15345293;19;20136;-49
2022/01/31 17:50:06;;;;;;;16.27;10.50;;;;;;;0.51;100.00;99207.63;15337660;19;20137;-52
2022/01/31 17:55:10;;;;;;;20.17;10.47;;;;;;;0.49;100.00;99204.22;15313221;19;20173;-49
2022/01/31 18:00:15;;;;;;;18.57;11.57;;;;;;;0.46;100.00;99220.09;15336260;19;20161;-47
2022/01/31 18:20:13;;;;;;;18.13;11.03;;;;;;;0.26;100.00;99250.59;15288153;19;20480;-47
2022/01/31 18:45:03;;;;;;;13.43;9.03;;;;;;;0.11;100.00;99269.59;15176926;19;2897241;-49
2022/01/31 18:50:09;;;;;;;18.43;10.37;;;;;;;0.04;100.00;99273.34;15340209;19;20160;-51
2022/01/31 18:55:14;;;;;;;17.97;10.53;;;;;;;-0.09;100.00;99277.34;15339892;19;20152;-50
2022/01/31 19:05:13;;;;;;;19.17;11.27;;;;;;;-0.22;100.00;99278.72;15166615;19;2913546;-49
2022/01/31 19:10:23;;;;;;;21.53;11.23;;;;;;;-0.31;100.00;99286.91;15340353;19;20166;-48
2022/01/31 19:20:49;;;;;;;22.60;12.17;;;;;;;-0.31;100.00;99289.53;15323523;19;20278;-47
2022/01/31 19:25:54;;;;;;;22.67;11.97;;;;;;;-0.30;100.00;99301.72;15311419;19;20831;-47
2022/01/31 19:31:00;;;;;;;35.57;14.47;;;;;;;-0.31;100.00;99321.00;15333654;19;20137;-50
2022/01/31 19:36:04;;;;;;;24.97;12.93;;;;;;;-0.23;100.00;99321.56;15341124;19;20161;-49
2022/01/31 19:46:26;;;;;;;26.90;12.40;;;;;;;-0.21;100.00;99317.13;15308390;19;20753;-48
2022/01/31 19:51:32;;;;;;;22.83;11.43;;;;;;;-0.25;100.00;99323.41;15324762;19;20532;-51
2022/01/31 20:01:34;;;;;;;20.77;9.57;;;;;;;-0.47;100.00;99332.00;15335321;19;20485;-52
2022/01/31 20:06:42;;;;;;;18.73;9.70;;;;;;;-0.59;100.00;99337.69;15328406;19;20144;-49
2022/01/31 20:21:43;;;;;;;21.17;10.07;;;;;;;-0.84;100.00;99357.75;15334311;19;21484;-50
2022/01/31 20:26:47;;;;;;;16.10;8.60;;;;;;;-0.87;100.00;99357.88;15338137;19;20166;-47
2022/01/31 20:36:51;;;;;;;25.40;12.37;;;;;;;-0.95;100.00;99359.88;15333267;19;20494;-47
2022/01/31 20:41:55;;;;;;;30.53;14.13;;;;;;;-0.96;100.00;99368.63;15345590;19;20132;-47
2022/01/31 20:51:57;;;;;;;18.43;9.97;;;;;;;-1.03;100.00;99372.38;15320189;19;20514;-49
2022/01/31 21:01:59;;;;;;;11.97;7.10;;;;;;;-1.15;100.00;99379.72;15341226;19;20455;-49
2022/01/31 21:12:01;;;;;;;15.40;8.17;;;;;;;-1.06;100.00;99377.69;15337638;19;20510;-49
2022/01/31 21:17:06;;;;;;;13.57;7.70;;;;;;;-1.03;100.00;99378.47;15316041;19;20143;-50
2022/01/31 21:22:11;;;;;;;14.60;7.93;;;;;;;-0.97;100.00;99378.28;15340321;19;20631;-48
2022/01/31 21:27:18;;;;;;;13.83;8.20;;;;;;;-0.96;100.00;99389.59;15348058;19;20144;-46
2022/01/31 21:37:20;;;;;;;13.80;7.80;;;;;;;-1.02;100.00;99389.81;15318866;19;20480;-48
2022/01/31 21:42:25;;;;;;;20.97;10.30;;;;;;;-1.09;100.00;99391.78;15330892;19;20177;-47
2022/01/31 21:47:30;;;;;;;20.17;11.37;;;;;;;-1.12;100.00;99405.81;15347643;19;20144;-51
2022/01/31 21:52:36;;;;;;;22.87;12.73;;;;;;;-1.14;100.00;99410.22;15346270;19;20176;-47
2022/01/31 22:22:30;;;;;;;26.17;14.23;;;;;;;-1.24;100.00;99437.59;15318354;19;20457;-50
2022/01/31 23:07:06;;;;;;;33.47;16.53;;;;;;;-1.75;100.00;99450.44;15317996;19;20823;-49
2022/01/31 23:42:18;;;;;;;23.33;12.67;;;;;;;-1.55;100.00;99457.72;15348783;19;20136;-50
